»·PEaware :: WAT348 KGEG-KSEA

WAT348 :: KGEG-KSEA

FLIGHT INFORMATION

Flight Status: Arrived
Operator:
Walker Air Transport
More flights by this operator :: More flights under this callsign
Pilot: Austin W. (7615)
Aircraft: BOEING 727-200
(B722)
More flights by this aircraft type
Origin: KGEG Spokane Intl
United States
Destination: KSEA Seattle-Tacoma Intl
United States
More flights between these airports :: More routes between these airports
Route: GEG6 GEG GLASR1
File this flight plan on PilotEdge
Remarks: Good afternoon!
Altitude:
(Current/Filed)
30,000ft
Speed:
(Current/Filed)
463kts
Departed: 20-Feb-21 11:52 AM
Arrived: 20-Feb-21 12:36 PM
Distance/Time
Traveled:
193nm/0:44
Distance/Time
To Go:
Arrived

Flight Plot

Page will automatically refresh every two minutes.

Flight plan parsing failed; only flown route is shown


Map Options




Map Legend


Flown Route
Filed Route
Departure Airport
Arrival Airport
Navaid (VOR, NDB)
Fix

Horizontal Profiles

Position Reports

Time Latitude Longitude Heading Altitude Ground
Speed
20-Feb-21 11:14 47.625051 -117.534513 348 2395ft 0kts
20-Feb-21 11:15 47.625051 -117.534513 348 2395ft 0kts
20-Feb-21 11:16 47.625051 -117.534513 348 2395ft 0kts
20-Feb-21 11:17 47.625051 -117.534513 348 2395ft 0kts
20-Feb-21 11:18 47.625051 -117.534513 348 2395ft 0kts
20-Feb-21 11:19 47.625051 -117.534513 348 2395ft 0kts
20-Feb-21 11:20 47.625051 -117.534513 348 2395ft 0kts
20-Feb-21 11:21 47.625051 -117.534513 348 2395ft 0kts
20-Feb-21 11:22 47.625051 -117.534513 348 2395ft 0kts
20-Feb-21 11:23 47.625051 -117.534513 348 2395ft 0kts
20-Feb-21 11:28 47.625051 -117.534513 348 2395ft 0kts
20-Feb-21 11:29 47.625051 -117.534513 348 2395ft 0kts
20-Feb-21 11:30 47.625051 -117.534513 348 2395ft 0kts
20-Feb-21 11:31 47.625051 -117.534513 348 2395ft 0kts
20-Feb-21 11:32 47.625051 -117.534513 348 2395ft 0kts
20-Feb-21 11:33 47.625051 -117.534513 348 2395ft 0kts
20-Feb-21 11:34 47.625051 -117.534513 348 2395ft 0kts
20-Feb-21 11:35 47.625051 -117.534513 348 2395ft 0kts
20-Feb-21 11:36 47.625051 -117.534513 348 2395ft 0kts
20-Feb-21 11:37 47.625051 -117.534513 348 2395ft 0kts
20-Feb-21 11:38 47.625051 -117.534513 348 2395ft 0kts
20-Feb-21 11:39 47.625051 -117.534513 348 2395ft 0kts
20-Feb-21 11:40 47.625051 -117.534513 348 2395ft 0kts
20-Feb-21 11:42 47.624633 -117.534389 348 2395ft 2kts
20-Feb-21 11:43 47.624521 -117.534356 348 2395ft 0kts
20-Feb-21 11:44 47.624521 -117.534356 348 2395ft 0kts
20-Feb-21 11:45 47.624521 -117.534356 348 2395ft 0kts
20-Feb-21 11:46 47.624529 -117.534358 349 2395ft 0kts
20-Feb-21 11:47 47.625141 -117.532887 74 2395ft 5kts
20-Feb-21 11:48 47.626501 -117.529402 44 2395ft 19kts
20-Feb-21 11:49 47.630921 -117.522757 45 2395ft 25kts
20-Feb-21 11:50 47.631344 -117.518796 140 2395ft 11kts
20-Feb-21 11:51 47.630714 -117.518981 223 2395ft 0kts
20-Feb-21 11:52 47.629921 -117.520217 226 2395ft 42kts
20-Feb-21 11:53 47.600571 -117.563189 222 4131ft 190kts
20-Feb-21 11:54 47.573777 -117.598899 222 6504ft 198kts
20-Feb-21 11:55 47.526725 -117.665261 238 9056ft 250kts
20-Feb-21 11:56 47.541370 -117.769317 293 11451ft 295kts
20-Feb-21 11:57 47.580658 -117.893646 294 12646ft 328kts
20-Feb-21 11:58 47.598566 -118.024696 279 15801ft 327kts
20-Feb-21 11:59 47.613403 -118.159925 281 18241ft 338kts
20-Feb-21 12:00 47.628315 -118.300133 280 20277ft 350kts
20-Feb-21 12:01 47.641527 -118.445568 280 22057ft 362kts
20-Feb-21 12:02 47.653772 -118.595978 281 23624ft 373kts
20-Feb-21 12:03 47.665917 -118.751198 281 25027ft 382kts
20-Feb-21 12:04 47.678432 -118.908889 283 26321ft 389kts
20-Feb-21 12:04 47.689544 -119.043099 283 27286ft 395kts
20-Feb-21 12:05 47.703478 -119.206095 284 28302ft 402kts
20-Feb-21 12:07 47.719932 -119.399745 285 29410ft 408kts
20-Feb-21 12:08 47.733622 -119.568725 285 30177ft 413kts
20-Feb-21 12:08 47.744723 -119.710810 284 30227ft 420kts
20-Feb-21 12:09 47.758122 -119.886466 284 30221ft 434kts
20-Feb-21 12:11 47.773413 -120.097749 284 30218ft 447kts
20-Feb-21 12:11 47.782127 -120.253010 283 30211ft 455kts
20-Feb-21 12:12 47.793409 -120.442616 283 30211ft 462kts
20-Feb-21 12:13 47.805433 -120.634484 284 30211ft 467kts
20-Feb-21 12:14 47.802898 -120.824724 281 30718ft 424kts
20-Feb-21 12:15 47.819578 -120.989038 294 29032ft 385kts
20-Feb-21 12:16 47.850373 -121.137341 296 27067ft 369kts
20-Feb-21 12:17 47.874166 -121.289972 287 24874ft 362kts
20-Feb-21 12:18 47.879280 -121.439803 278 19605ft 346kts
20-Feb-21 12:19 47.878363 -121.578904 275 14866ft 298kts
20-Feb-21 12:20 47.882772 -121.703086 275 11997ft 280kts
20-Feb-21 12:21 47.857078 -121.807433 203 11928ft 291kts
20-Feb-21 12:22 47.782902 -121.845313 208 11917ft 261kts
20-Feb-21 12:23 47.724661 -121.897670 225 11108ft 233kts
20-Feb-21 12:24 47.689693 -121.969847 277 8995ft 206kts
20-Feb-21 12:25 47.702015 -122.053301 285 6442ft 200kts
20-Feb-21 12:26 47.716537 -122.135759 285 5989ft 216kts
20-Feb-21 12:27 47.732052 -122.222790 285 5999ft 211kts
20-Feb-21 12:28 47.731436 -122.306894 219 5870ft 215kts
20-Feb-21 12:29 47.669292 -122.308113 179 4597ft 225kts
20-Feb-21 12:30 47.608200 -122.308505 183 3294ft 202kts
20-Feb-21 12:31 47.558286 -122.310440 179 2315ft 141kts
20-Feb-21 12:32 47.522683 -122.310568 175 1604ft 121kts
20-Feb-21 12:33 47.489399 -122.310780 180 1042ft 117kts
20-Feb-21 12:34 47.457340 -122.311037 181 439ft 101kts
20-Feb-21 12:35 47.444680 -122.309511 151 438ft 9kts
20-Feb-21 12:36 47.444172 -122.309050 147 438ft 8kts
20-Feb-21 12:37 47.445774 -122.306345 0 438ft 20kts
20-Feb-21 12:38 47.447368 -122.303377 130 438ft 13kts
20-Feb-21 12:39 47.447264 -122.301528 2 438ft 0kts
20-Feb-21 12:40 47.447382 -122.301554 339 438ft 0kts
20-Feb-21 12:41 47.447382 -122.301554 339 438ft 0kts
20-Feb-21 12:42 47.447382 -122.301554 339 438ft 0kts
20-Feb-21 12:43 47.447382 -122.301554 339 438ft 0kts
20-Feb-21 12:44 47.447382 -122.301554 339 438ft 0kts
20-Feb-21 12:45 47.447382 -122.301554 339 438ft 0kts
20-Feb-21 12:46 47.447382 -122.301554 339 438ft 0kts
20-Feb-21 12:47 47.447382 -122.301554 339 438ft 0kts
20-Feb-21 12:48 47.447382 -122.301554 339 438ft 0kts
20-Feb-21 12:49 47.447382 -122.301554 339 438ft 0kts

Navigation Log

Ident Type
Flight plan parsing failed, navigation log unavailable